Time;durP1;ratioP1;P1;durP2;ratioP2;P2;SDS_P1;SDS_P2;PMS_P1;PMS_P2;Temp;Humidity;BMP_temperature;BMP_pressure;BME280_temperature;BME280_humidity;BME280_pressure;Samples;Min_cycle;Max_cycle;Signal;HPM_P1;HPM_P2
2023/11/04 00:04:10;;;;;;;;;;;;;;;-144.99;100.00;52562.25;5100387;28;19923;-69
2023/11/04 00:06:36;;;;;;;;;;;;;;;-144.99;100.00;52552.03;5101879;27;20441;-69
2023/11/04 00:09:02;;;;;;;;;;;;;;;-144.99;100.00;52586.69;5111246;27;20227;-69
2023/11/04 00:11:29;;;;;;;;;;;;;;;-144.99;100.00;52574.47;5114900;27;19928;-69
2023/11/04 00:13:55;;;;;;;;;;;;;;;-144.99;100.00;52558.16;5101548;27;19963;-71
2023/11/04 00:16:22;;;;;;;;;;;;;;;-144.99;100.00;52607.09;5098096;28;20376;-71
2023/11/04 00:18:48;;;;;;;;;;;;;;;-144.99;100.00;52570.38;5094709;28;19924;-70
2023/11/04 00:21:16;;;;;;;;;;;;;;;-144.99;100.00;52578.53;5096739;28;20011;-71
2023/11/04 00:23:42;;;;;;;;;;;;;;;-144.99;100.00;52547.97;5097869;28;20016;-71
2023/11/04 00:26:09;;;;;;;;;;;;;;;-144.99;100.00;52586.69;5096327;28;20011;-73
2023/11/04 00:28:36;;;;;;;;;;;;;;;-144.99;100.00;52517.41;5093521;28;19930;-71
2023/11/04 00:31:02;;;;;;;;;;;;;;;-144.99;100.00;52570.38;5099743;28;20014;-69
2023/11/04 00:33:28;;;;;;;;;;;;;;;-144.99;100.00;52552.03;5094840;28;19924;-69
2023/11/04 00:35:55;;;;;;;;;;;;;;;-144.99;100.00;52560.19;5092853;28;19970;-69
2023/11/04 00:38:22;;;;;;;;;;;;;;;-144.99;100.00;52543.91;5089142;28;19977;-69
2023/11/04 00:40:49;;;;;;;;;;;;;;;-144.99;100.00;52562.25;5094437;28;20033;-69
2023/11/04 00:43:15;;;;;;;;;;;;;;;-144.99;100.00;52554.09;5097600;28;20232;-69
2023/11/04 00:45:42;;;;;;;;;;;;;;;-144.99;100.00;52529.63;5094607;28;20216;-70
2023/11/04 00:48:08;;;;;;;;;;;;;;;-144.99;100.00;52596.88;5100697;28;19973;-68
2023/11/04 00:50:36;;;;;;;;;;;;;;;-144.99;100.00;52564.28;5095937;28;20262;-69
2023/11/04 00:53:03;;;;;;;;;;;;;;;-144.99;100.00;52556.13;5092227;28;19931;-68
2023/11/04 00:55:30;;;;;;;;;;;;;;;-144.99;100.00;52537.78;5096994;28;19955;-69
2023/11/04 00:57:57;;;;;;;;;;;;;;;-144.99;100.00;52537.78;5098330;28;20367;-68
2023/11/04 01:00:26;;;;;;;;;;;;;;;-144.99;100.00;52582.63;5091399;28;20011;-70
2023/11/04 01:02:54;;;;;;;;;;;;;;;-144.99;100.00;52580.59;5101473;28;19961;-69
2023/11/04 01:05:20;;;;;;;;;;;;;;;-144.99;100.00;52552.03;5095133;28;20291;-70
2023/11/04 01:07:47;;;;;;;;;;;;;;;-144.99;100.00;52562.25;5097087;28;19966;-70
2023/11/04 01:10:14;;;;;;;;;;;;;;;-144.99;100.00;52550.00;5093108;28;20403;-68
2023/11/04 01:12:41;;;;;;;;;;;;;;;-144.99;100.00;52578.53;5083440;28;20422;-69
2023/11/04 01:15:08;;;;;;;;;;;;;;;-144.99;100.00;52545.94;5092754;28;19969;-71
2023/11/04 01:17:35;;;;;;;;;;;;;;;-144.99;100.00;52556.13;5098052;28;20378;-72
2023/11/04 01:20:01;;;;;;;;;;;;;;;-144.99;100.00;52550.00;5093003;28;19955;-71
2023/11/04 01:22:28;;;;;;;;;;;;;;;-144.99;100.00;52545.94;5092544;28;19924;-70
2023/11/04 01:24:54;;;;;;;;;;;;;;;-144.99;100.00;52554.09;5096858;28;20000;-68
2023/11/04 01:27:21;;;;;;;;;;;;;;;-144.99;100.00;52562.25;5095672;28;20015;-70
2023/11/04 01:29:49;;;;;;;;;;;;;;;-144.99;100.00;52547.97;5092204;28;19924;-70
2023/11/04 01:32:16;;;;;;;;;;;;;;;-144.99;100.00;52562.25;5096098;28;19931;-69
2023/11/04 01:34:42;;;;;;;;;;;;;;;-144.99;100.00;52545.94;5088751;28;19959;-71
2023/11/04 01:37:09;;;;;;;;;;;;;;;-144.99;100.00;52513.31;5096455;28;20014;-70
2023/11/04 01:39:36;;;;;;;;;;;;;;;-144.99;100.00;52554.09;5090035;28;20022;-70
2023/11/04 01:42:04;;;;;;;;;;;;;;;-144.99;100.00;52582.63;5098273;28;20026;-70
2023/11/04 01:44:31;;;;;;;;;;;;;;;-144.99;100.00;52562.25;5091701;28;19963;-70
2023/11/04 01:46:59;;;;;;;;;;;;;;;-144.99;100.00;52545.94;5100022;28;19923;-69
2023/11/04 01:49:26;;;;;;;;;;;;;;;-144.99;100.00;52554.09;5087723;28;19995;-70
2023/11/04 01:51:54;;;;;;;;;;;;;;;-144.99;100.00;52574.47;5091119;28;19928;-69
2023/11/04 01:54:21;;;;;;;;;;;;;;;-144.99;100.00;52550.00;5094783;28;19924;-70
2023/11/04 01:56:47;;;;;;;;;;;;;;;-144.99;100.00;52550.00;5100087;28;20038;-70
2023/11/04 01:59:14;;;;;;;;;;;;;;;-144.99;100.00;52566.31;5098443;28;19928;-70
2023/11/04 02:01:45;;;;;;;;;;;;;;;-144.99;100.00;52590.78;5094322;28;20015;-70
2023/11/04 02:04:13;;;;;;;;;;;;;;;-144.99;100.00;52554.09;5100688;28;19935;-70
2023/11/04 02:06:39;;;;;;;;;;;;;;;-144.99;100.00;52603.00;5091436;28;19924;-70
2023/11/04 02:09:06;;;;;;;;;;;;;;;-144.99;100.00;52550.00;5109615;28;20043;-70
2023/11/04 02:11:33;;;;;;;;;;;;;;;-144.99;100.00;52543.91;5097245;28;20232;-70
2023/11/04 02:13:59;;;;;;;;;;;;;;;-144.99;100.00;52578.53;5098142;28;19969;-71
2023/11/04 02:16:26;;;;;;;;;;;;;;;-144.99;100.00;52590.78;5096603;28;19931;-70
2023/11/04 02:18:52;;;;;;;;;;;;;;;-144.99;100.00;52521.47;5098679;28;19934;-70
2023/11/04 02:21:20;;;;;;;;;;;;;;;-144.99;100.00;52580.59;5093113;28;20459;-70
2023/11/04 02:23:47;;;;;;;;;;;;;;;-144.99;100.00;52609.13;5091677;28;20290;-70
2023/11/04 02:26:13;;;;;;;;;;;;;;;-144.99;100.00;52570.38;5093196;28;19932;-70
2023/11/04 02:28:40;;;;;;;;;;;;;;;-144.99;100.00;52580.59;5102232;28;19934;-69
2023/11/04 02:31:06;;;;;;;;;;;;;;;-144.99;100.00;52545.94;5097316;28;20608;-70
2023/11/04 02:33:32;;;;;;;;;;;;;;;-144.99;100.00;52582.63;5098797;28;19924;-71
2023/11/04 02:35:59;;;;;;;;;;;;;;;-144.99;100.00;52578.53;5095380;28;20011;-70
2023/11/04 02:38:27;;;;;;;;;;;;;;;-144.99;100.00;52570.38;5090179;28;20450;-69
2023/11/04 02:40:53;;;;;;;;;;;;;;;-144.99;100.00;52574.47;5094541;28;19924;-70
2023/11/04 02:43:20;;;;;;;;;;;;;;;-144.99;100.00;52578.53;5099034;28;19932;-69
2023/11/04 02:45:46;;;;;;;;;;;;;;;-144.99;100.00;52550.00;5095142;28;20011;-69
2023/11/04 02:48:13;;;;;;;;;;;;;;;-144.99;100.00;52594.84;5101238;28;19981;-69
2023/11/04 02:50:39;;;;;;;;;;;;;;;-144.99;100.00;52529.63;5096610;28;20313;-69
2023/11/04 02:53:05;;;;;;;;;;;;;;;-144.99;100.00;52537.78;5094288;28;20019;-69
2023/11/04 02:55:33;;;;;;;;;;;;;;;-144.99;100.00;52558.16;5097768;28;20462;-69
2023/11/04 02:58:00;;;;;;;;;;;;;;;-144.99;100.00;52594.84;5097705;28;20408;-69
2023/11/04 03:00:26;;;;;;;;;;;;;;;-144.99;100.00;52554.09;5091023;28;20459;-70
2023/11/04 03:02:55;;;;;;;;;;;;;;;-144.99;100.00;52558.16;5097065;28;20345;-69
2023/11/04 03:05:21;;;;;;;;;;;;;;;-144.99;100.00;52554.09;5089664;28;19924;-70
2023/11/04 03:07:48;;;;;;;;;;;;;;;-144.99;100.00;52574.47;5094851;28;20015;-71
2023/11/04 03:10:14;;;;;;;;;;;;;;;-144.99;100.00;52539.81;5092113;28;19924;-70
2023/11/04 03:12:42;;;;;;;;;;;;;;;-144.99;100.00;52562.25;5089897;28;19969;-71
2023/11/04 03:15:09;;;;;;;;;;;;;;;-144.99;100.00;52578.53;5093313;28;20201;-70
2023/11/04 03:17:35;;;;;;;;;;;;;;;-144.99;100.00;52525.56;5089587;28;19966;-70
2023/11/04 03:20:03;;;;;;;;;;;;;;;-144.99;100.00;52598.94;5093737;28;19925;-70
2023/11/04 03:22:29;;;;;;;;;;;;;;;-144.99;100.00;52586.69;5093731;28;20014;-69
2023/11/04 03:24:55;;;;;;;;;;;;;;;-144.99;100.00;52578.53;5097430;28;19972;-70
2023/11/04 03:27:23;;;;;;;;;;;;;;;-144.99;100.00;52580.59;5095737;28;19947;-70
2023/11/04 03:29:51;;;;;;;;;;;;;;;-144.99;100.00;52541.84;5100510;28;19928;-70
2023/11/04 03:32:17;;;;;;;;;;;;;;;-144.99;100.00;52558.16;5097265;28;19957;-70
2023/11/04 03:34:43;;;;;;;;;;;;;;;-144.99;100.00;52570.38;5092897;28;20033;-69
2023/11/04 03:37:10;;;;;;;;;;;;;;;-144.99;100.00;52582.63;5100191;28;20442;-70
2023/11/04 03:39:36;;;;;;;;;;;;;;;-144.99;100.00;52574.47;5090912;28;19928;-70
2023/11/04 03:42:03;;;;;;;;;;;;;;;-144.99;100.00;52558.16;5099855;28;20458;-69
2023/11/04 03:44:29;;;;;;;;;;;;;;;-144.99;100.00;52574.47;5091887;28;19924;-69
2023/11/04 03:46:57;;;;;;;;;;;;;;;-144.99;100.00;52566.31;5101214;28;19927;-70
2023/11/04 03:49:24;;;;;;;;;;;;;;;-144.99;100.00;52556.13;5095402;28;19924;-70
2023/11/04 03:51:50;;;;;;;;;;;;;;;-144.99;100.00;52590.78;5095757;28;20011;-69
2023/11/04 03:54:16;;;;;;;;;;;;;;;-144.99;100.00;52574.47;5098782;28;20015;-69
2023/11/04 03:56:43;;;;;;;;;;;;;;;-144.99;100.00;52598.94;5098837;28;19985;-70
2023/11/04 03:59:09;;;;;;;;;;;;;;;-144.99;100.00;52578.53;5095423;28;20628;-69
2023/11/04 04:01:39;;;;;;;;;;;;;;;-144.99;100.00;52578.53;5091039;28;19963;-69
2023/11/04 04:04:07;;;;;;;;;;;;;;;-144.99;100.00;52541.84;5100493;28;20167;-69
2023/11/04 04:06:34;;;;;;;;;;;;;;;-144.99;100.00;52598.94;5092235;28;19963;-68
2023/11/04 04:09:01;;;;;;;;;;;;;;;-144.99;100.00;52566.31;5100640;28;20295;-67
2023/11/04 04:11:27;;;;;;;;;;;;;;;-144.99;100.00;52533.69;5095904;28;20059;-68
2023/11/04 04:13:54;;;;;;;;;;;;;;;-144.99;100.00;52529.63;5094412;28;20014;-68
2023/11/04 04:16:22;;;;;;;;;;;;;;;-144.99;100.00;52574.47;5095068;28;19986;-68
2023/11/04 04:18:48;;;;;;;;;;;;;;;-144.99;100.00;52550.00;5093253;28;20348;-69
2023/11/04 04:21:16;;;;;;;;;;;;;;;-144.99;100.00;52554.09;5090729;28;20023;-68
2023/11/04 04:23:43;;;;;;;;;;;;;;;-144.99;100.00;52603.00;5097469;28;20019;-68
2023/11/04 04:26:09;;;;;;;;;;;;;;;-144.99;100.00;52586.69;5092421;28;20030;-68
2023/11/04 04:28:36;;;;;;;;;;;;;;;-144.99;100.00;52562.25;5093769;28;20016;-68
2023/11/04 04:31:02;;;;;;;;;;;;;;;-144.99;100.00;52550.00;5091786;28;19985;-69
2023/11/04 04:33:29;;;;;;;;;;;;;;;-144.99;100.00;52586.69;5096171;28;19924;-70
2023/11/04 04:35:55;;;;;;;;;;;;;;;-144.99;100.00;52582.63;5092976;28;20138;-70
2023/11/04 04:38:24;;;;;;;;;;;;;;;-144.99;100.00;52558.16;5096485;28;19947;-69
2023/11/04 04:40:50;;;;;;;;;;;;;;;-144.99;100.00;52574.47;5093210;28;19924;-71
2023/11/04 04:43:17;;;;;;;;;;;;;;;-144.99;100.00;52558.16;5091134;28;20022;-71
2023/11/04 04:45:43;;;;;;;;;;;;;;;-144.99;100.00;52586.69;5094734;28;19928;-71
2023/11/04 04:48:10;;;;;;;;;;;;;;;-144.99;100.00;52529.63;5100299;28;19928;-70
2023/11/04 04:50:36;;;;;;;;;;;;;;;-144.99;100.00;52545.94;5095446;28;20413;-70
2023/11/04 04:53:03;;;;;;;;;;;;;;;-144.99;100.00;52558.16;5091773;28;20016;-69
2023/11/04 04:55:30;;;;;;;;;;;;;;;-144.99;100.00;52566.31;5088376;28;20019;-69
2023/11/04 04:57:57;;;;;;;;;;;;;;;-144.99;100.00;52541.84;5096872;28;20011;-71
2023/11/04 05:00:23;;;;;;;;;;;;;;;-144.99;100.00;52541.84;5089764;28;19986;-71
2023/11/04 05:02:50;;;;;;;;;;;;;;;-144.99;100.00;52586.69;5086888;28;20275;-71
2023/11/04 05:05:16;;;;;;;;;;;;;;;-144.99;100.00;52562.25;5090133;28;19971;-71
2023/11/04 05:07:43;;;;;;;;;;;;;;;-144.99;100.00;52562.25;5093477;28;19928;-70
2023/11/04 05:10:10;;;;;;;;;;;;;;;-144.99;100.00;52570.38;5094158;28;20044;-70
2023/11/04 05:12:38;;;;;;;;;;;;;;;-144.99;100.00;52562.25;5096594;28;20469;-70
2023/11/04 05:15:05;;;;;;;;;;;;;;;-144.99;100.00;52550.00;5093172;28;20015;-71
2023/11/04 05:17:31;;;;;;;;;;;;;;;-144.99;100.00;52623.38;5087888;28;19931;-71
2023/11/04 05:19:58;;;;;;;;;;;;;;;-144.99;100.00;52562.25;5093103;28;19932;-70
2023/11/04 05:22:24;;;;;;;;;;;;;;;-144.99;100.00;52562.25;5092337;28;20028;-70
2023/11/04 05:24:51;;;;;;;;;;;;;;;-144.99;100.00;52574.47;5096047;28;20039;-70
2023/11/04 05:27:17;;;;;;;;;;;;;;;-144.99;100.00;52533.69;5094557;28;19950;-72
2023/11/04 05:29:45;;;;;;;;;;;;;;;-144.99;100.00;52550.00;5097618;28;19981;-70
2023/11/04 05:32:11;;;;;;;;;;;;;;;-144.99;100.00;52570.38;5098790;28;20003;-71
2023/11/04 05:34:38;;;;;;;;;;;;;;;-144.99;100.00;52558.16;5094214;28;20414;-70
2023/11/04 05:37:04;;;;;;;;;;;;;;;-144.99;100.00;52515.34;5102855;28;20051;-72
2023/11/04 05:39:31;;;;;;;;;;;;;;;-144.99;100.00;52537.78;5092481;28;19943;-71
2023/11/04 05:41:57;;;;;;;;;;;;;;;-144.99;100.00;52529.63;5102590;28;19997;-70
2023/11/04 05:44:24;;;;;;;;;;;;;;;-144.99;100.00;52586.69;5094062;28;20023;-70
2023/11/04 05:46:51;;;;;;;;;;;;;;;-144.99;100.00;52525.56;5103092;28;20393;-70
2023/11/04 05:49:18;;;;;;;;;;;;;;;-144.99;100.00;52592.81;5095974;28;19924;-70
2023/11/04 05:51:44;;;;;;;;;;;;;;;-144.99;100.00;52562.25;5097595;28;19987;-71
2023/11/04 05:54:11;;;;;;;;;;;;;;;-144.99;100.00;52562.25;5096287;28;20026;-70
2023/11/04 05:56:38;;;;;;;;;;;;;;;-144.99;100.00;52570.38;5094416;28;20178;-70
2023/11/04 05:59:05;;;;;;;;;;;;;;;-144.99;100.00;52572.44;5108241;28;20442;-71
2023/11/04 06:01:31;;;;;;;;;;;;;;;-144.99;100.00;52545.94;5096486;28;20404;-71
2023/11/04 06:03:59;;;;;;;;;;;;;;;-144.99;100.00;52570.38;5098606;28;19947;-70
2023/11/04 06:06:26;;;;;;;;;;;;;;;-144.99;100.00;52545.94;5087238;28;19967;-71
2023/11/04 06:08:52;;;;;;;;;;;;;;;-144.99;100.00;52566.31;5102765;28;19985;-70
2023/11/04 06:11:19;;;;;;;;;;;;;;;-144.99;100.00;52550.00;5099605;28;19928;-70
2023/11/04 06:13:46;;;;;;;;;;;;;;;-144.99;100.00;52572.44;5093434;28;20341;-70
2023/11/04 06:16:12;;;;;;;;;;;;;;;-144.99;100.00;52574.47;5097065;28;20451;-70
2023/11/04 06:18:38;;;;;;;;;;;;;;;-144.99;100.00;52533.69;5095097;28;19924;-68
2023/11/04 06:21:07;;;;;;;;;;;;;;;-144.99;100.00;52517.41;5112280;22;20344;-69
2023/11/04 06:23:33;;;;;;;;;;;;;;;-144.99;100.00;52560.19;5116472;27;19939;-67
2023/11/04 06:26:00;;;;;;;;;;;;;;;-144.99;100.00;52545.94;5095275;28;19971;-66
2023/11/04 06:28:28;;;;;;;;;;;;;;;-144.99;100.00;52527.59;5095737;28;19928;-66
2023/11/04 06:30:54;;;;;;;;;;;;;;;-144.99;100.00;52574.47;5098103;28;19923;-65
2023/11/04 06:33:21;;;;;;;;;;;;;;;-144.99;100.00;52545.94;5091230;28;19932;-66
2023/11/04 06:35:47;;;;;;;;;;;;;;;-144.99;100.00;52537.78;5094332;28;19928;-66
2023/11/04 06:38:15;;;;;;;;;;;;;;;-144.99;100.00;52570.38;5096843;28;19931;-65
2023/11/04 06:40:42;;;;;;;;;;;;;;;-144.99;100.00;52550.00;5095368;28;19924;-66
2023/11/04 06:43:08;;;;;;;;;;;;;;;-144.99;100.00;52562.25;5091691;28;20043;-66
2023/11/04 06:45:35;;;;;;;;;;;;;;;-144.99;100.00;52582.63;5097893;28;19960;-64
2023/11/04 06:48:01;;;;;;;;;;;;;;;-144.99;100.00;52543.91;5095745;28;20030;-65
2023/11/04 06:50:28;;;;;;;;;;;;;;;-144.99;100.00;52558.16;5099239;28;19932;-65
2023/11/04 06:52:55;;;;;;;;;;;;;;;-144.99;100.00;52578.53;5093638;28;19932;-66
2023/11/04 06:55:23;;;;;;;;;;;;;;;-144.99;100.00;52529.63;5100956;28;19984;-67
2023/11/04 06:57:49;;;;;;;;;;;;;;;-144.99;100.00;52545.94;5093120;28;19925;-66
2023/11/04 07:00:16;;;;;;;;;;;;;;;-144.99;100.00;52517.41;5099615;28;20374;-67
2023/11/04 07:02:43;;;;;;;;;;;;;;;-144.99;100.00;52545.94;5091795;28;20025;-67
2023/11/04 07:05:10;;;;;;;;;;;;;;;-144.99;100.00;52586.69;5091020;28;19954;-67
2023/11/04 07:07:37;;;;;;;;;;;;;;;-144.99;100.00;52554.09;5091804;28;19931;-70
2023/11/04 07:10:04;;;;;;;;;;;;;;;-144.99;100.00;52580.59;5089747;28;19928;-68
2023/11/04 07:12:35;;;;;;;;;;;;;;;-144.99;100.00;52527.59;5092724;28;19936;-68
2023/11/04 07:15:01;;;;;;;;;;;;;;;-144.99;100.00;52554.09;5090610;28;19928;-68
2023/11/04 07:17:28;;;;;;;;;;;;;;;-144.99;100.00;52521.47;5097058;28;20346;-66
2023/11/04 07:19:56;;;;;;;;;;;;;;;-144.99;100.00;52545.94;5094849;28;19935;-68
2023/11/04 07:22:22;;;;;;;;;;;;;;;-144.99;100.00;52560.19;5097927;28;20269;-68
2023/11/04 07:24:48;;;;;;;;;;;;;;;-144.99;100.00;52541.84;5096915;28;20330;-67
2023/11/04 07:27:15;;;;;;;;;;;;;;;-144.99;100.00;52566.31;5100450;28;19967;-67
2023/11/04 07:29:43;;;;;;;;;;;;;;;-144.99;100.00;52529.63;5089707;28;20020;-69
2023/11/04 07:32:10;;;;;;;;;;;;;;;-144.99;100.00;52572.44;5092893;28;19946;-69
2023/11/04 07:34:36;;;;;;;;;;;;;;;-144.99;100.00;52554.09;5107991;28;20348;-68
2023/11/04 07:37:03;;;;;;;;;;;;;;;-144.99;100.00;52550.00;5090816;28;20356;-68
2023/11/04 07:39:30;;;;;;;;;;;;;;;-144.99;100.00;52537.78;5094681;28;19928;-67
2023/11/04 07:41:56;;;;;;;;;;;;;;;-144.99;100.00;52550.00;5096364;28;19928;-67
2023/11/04 07:44:23;;;;;;;;;;;;;;;-144.99;100.00;52529.63;5090916;28;19924;-68
2023/11/04 07:46:51;;;;;;;;;;;;;;;-144.99;100.00;52537.78;5091626;28;20015;-66
2023/11/04 07:49:17;;;;;;;;;;;;;;;-144.99;100.00;52550.00;5095861;28;19924;-68
2023/11/04 07:51:44;;;;;;;;;;;;;;;-144.99;100.00;52562.25;5094450;28;20046;-65
2023/11/04 07:54:10;;;;;;;;;;;;;;;-144.99;100.00;52517.41;5093069;28;20023;-68
2023/11/04 07:56:37;;;;;;;;;;;;;;;-144.99;100.00;52550.00;5094140;28;19986;-79
2023/11/04 07:59:03;;;;;;;;;;;;;;;-144.99;100.00;52547.97;5094522;28;20009;-71
2023/11/04 08:01:31;;;;;;;;;;;;;;;-144.99;100.00;52550.00;5096796;28;19983;-69
2023/11/04 08:03:59;;;;;;;;;;;;;;;-144.99;100.00;52550.00;5099080;28;19927;-68
2023/11/04 08:06:26;;;;;;;;;;;;;;;-144.99;100.00;52529.63;5093923;28;19981;-70
2023/11/04 08:08:53;;;;;;;;;;;;;;;-144.99;100.00;52541.84;5101264;28;19966;-70
2023/11/04 08:11:19;;;;;;;;;;;;;;;-144.99;100.00;52541.84;5098450;28;19928;-69
2023/11/04 08:13:46;;;;;;;;;;;;;;;-144.99;100.00;52529.63;5089853;28;19928;-70
2023/11/04 08:16:12;;;;;;;;;;;;;;;-144.99;100.00;52533.69;5090847;28;19931;-70
2023/11/04 08:18:40;;;;;;;;;;;;;;;-144.99;100.00;52541.84;5089217;28;20119;-69
2023/11/04 08:21:08;;;;;;;;;;;;;;;-144.99;99.83;52550.00;5088222;28;19932;-70
2023/11/04 08:23:35;;;;;;;;;;;;;;;-144.99;99.81;52541.84;5096652;28;19963;-69
2023/11/04 08:26:02;;;;;;;;;;;;;;;-144.99;100.00;52533.69;5088978;28;19939;-69
2023/11/04 08:28:28;;;;;;;;;;;;;;;-144.99;99.82;52541.84;5094915;28;20011;-66
2023/11/04 08:30:55;;;;;;;;;;;;;;;-144.99;99.74;52541.84;5091792;28;20320;-70
2023/11/04 08:33:21;;;;;;;;;;;;;;;-144.99;99.48;52537.78;5103077;28;19932;-73
2023/11/04 08:35:48;;;;;;;;;;;;;;;-144.99;100.00;52533.69;5094065;28;19963;-65
2023/11/04 08:38:17;;;;;;;;;;;;;;;-144.99;98.82;52525.56;5094744;28;19971;-71
2023/11/04 08:40:45;;;;;;;;;;;;;;;-144.99;98.46;52515.34;5091255;28;19924;-71
2023/11/04 08:43:12;;;;;;;;;;;;;;;-144.99;99.44;52537.78;5091053;28;19936;-73
2023/11/04 08:45:38;;;;;;;;;;;;;;;-144.99;99.03;52497.00;5093190;28;19932;-73
2023/11/04 08:48:05;;;;;;;;;;;;;;;-144.99;98.91;52521.47;5096328;28;20386;-72
2023/11/04 08:50:31;;;;;;;;;;;;;;;-144.99;98.39;52513.31;5094078;28;20448;-73
2023/11/04 08:52:58;;;;;;;;;;;;;;;-144.99;98.18;52541.84;5103870;28;19939;-72
2023/11/04 08:55:26;;;;;;;;;;;;;;;-144.99;97.85;52554.09;5091125;28;19924;-72
2023/11/04 08:57:52;;;;;;;;;;;;;;;-144.99;97.36;52513.31;5096959;28;19963;-71
2023/11/04 09:00:19;;;;;;;;;;;;;;;-144.99;97.17;52554.09;5096800;28;19968;-71
2023/11/04 09:02:46;;;;;;;;;;;;;;;-144.99;97.33;52509.25;5095856;28;19935;-72
2023/11/04 09:05:12;;;;;;;;;;;;;;;-144.99;97.02;52560.19;5100148;28;20454;-71
2023/11/04 09:07:39;;;;;;;;;;;;;;;-144.99;97.24;52550.00;5100622;28;19931;-71
2023/11/04 09:10:05;;;;;;;;;;;;;;;-144.99;97.27;52468.47;5092620;28;20040;-71
2023/11/04 09:12:33;;;;;;;;;;;;;;;-144.99;96.45;52525.56;5100457;28;19940;-72
2023/11/04 09:15:01;;;;;;;;;;;;;;;-144.99;96.61;52558.16;5105204;28;19938;-64
2023/11/04 09:17:27;;;;;;;;;;;;;;;-144.99;96.10;52515.34;5112326;28;20446;-69
2023/11/04 09:19:54;;;;;;;;;;;;;;;-144.99;96.12;52511.28;5095202;28;20365;-74
2023/11/04 09:22:21;;;;;;;;;;;;;;;-144.99;96.05;52499.06;5100322;28;19934;-71
2023/11/04 09:24:48;;;;;;;;;;;;;;;-144.99;95.13;52501.09;5101638;28;19930;-72
2023/11/04 09:27:14;;;;;;;;;;;;;;;-144.99;94.79;52497.00;5108044;28;19931;-72
2023/11/04 09:29:42;;;;;;;;;;;;;;;-144.99;94.58;52513.31;5106536;28;19977;-73
2023/11/04 09:32:08;;;;;;;;;;;;;;;-144.99;94.79;52531.66;5099688;28;19924;-72
2023/11/04 09:34:35;;;;;;;;;;;;;;;-144.99;94.25;52468.47;5095499;28;20242;-72
2023/11/04 09:37:03;;;;;;;;;;;;;;;-144.99;93.42;52517.41;5096494;28;19977;-73
2023/11/04 09:39:30;;;;;;;;;;;;;;;-144.99;90.86;52541.84;5099815;28;19930;-72
2023/11/04 09:41:57;;;;;;;;;;;;;;;-144.99;91.13;52476.63;5096079;28;19975;-74
2023/11/04 09:44:24;;;;;;;;;;;;;;;-144.99;91.21;52488.84;5099677;28;19951;-74
2023/11/04 09:46:52;;;;;;;;;;;;;;;-144.99;90.86;52468.47;5098884;28;19931;-72
2023/11/04 09:49:18;;;;;;;;;;;;;;;-144.99;88.80;52407.31;5096430;28;19978;-72
2023/11/04 09:51:45;;;;;;;;;;;;;;;-144.99;86.53;52450.13;5096592;28;19978;-71
2023/11/04 09:54:12;;;;;;;;;;;;;;;-144.99;83.45;52444.03;5102180;28;19924;-75
2023/11/04 09:56:39;;;;;;;;;;;;;;;-144.99;81.97;52456.25;5092899;28;19963;-72
2023/11/04 09:59:07;;;;;;;;;;;;;;;-144.99;82.68;52466.44;5096112;28;20007;-73
2023/11/04 10:01:34;;;;;;;;;;;;;;;-144.99;84.39;52464.41;5098809;28;20015;-73
2023/11/04 10:04:01;;;;;;;;;;;;;;;-144.99;84.48;52450.13;5098711;28;19931;-75
2023/11/04 10:06:29;;;;;;;;;;;;;;;-144.99;85.62;52472.56;5100386;28;19937;-72
2023/11/04 10:08:55;;;;;;;;;;;;;;;-144.99;85.86;52448.09;5106529;28;19938;-73
2023/11/04 10:11:22;;;;;;;;;;;;;;;-144.99;86.40;52468.47;5099323;28;19975;-74
2023/11/04 10:13:49;;;;;;;;;;;;;;;-144.99;85.28;52460.31;5110121;28;20597;-73
2023/11/04 10:16:18;;;;;;;;;;;;;;;-144.99;86.07;52486.81;5094552;28;20030;-73
2023/11/04 10:18:44;;;;;;;;;;;;;;;-144.99;87.11;52478.66;5099615;28;20423;-75
2023/11/04 10:21:12;;;;;;;;;;;;;;;-144.99;88.11;52501.09;5093124;28;20425;-74
2023/11/04 10:23:39;;;;;;;;;;;;;;;-144.99;88.45;52488.84;5096118;28;19924;-74
2023/11/04 10:26:05;;;;;;;;;;;;;;;-144.99;88.83;52507.19;5094155;28;19959;-76
2023/11/04 10:28:32;;;;;;;;;;;;;;;-144.99;88.73;52474.59;5103326;28;19989;-73
2023/11/04 10:31:02;;;;;;;;;;;;;;;-144.99;88.27;52435.88;5104744;28;20465;-73
2023/11/04 10:33:32;;;;;;;;;;;;;;;-144.99;86.60;52456.25;5093417;28;20126;-73
2023/11/04 10:35:59;;;;;;;;;;;;;;;-144.99;85.31;52388.97;5095423;28;20033;-74
2023/11/04 10:38:27;;;;;;;;;;;;;;;-144.99;82.78;52468.47;5092076;28;19970;-75
2023/11/04 10:40:54;;;;;;;;;;;;;;;-144.99;80.20;52289.13;5096043;28;19924;-73
2023/11/04 10:43:24;;;;;;;;;;;;;;;-144.99;77.86;52366.56;5092811;28;19928;-73
2023/11/04 10:45:54;;;;;;;;;;;;;;;-144.99;77.19;52470.50;5090447;28;20325;-73
2023/11/04 10:48:28;;;;;;;;;;;;;;;-144.99;79.28;52439.94;5090849;28;19924;-76
2023/11/04 10:50:59;;;;;;;;;;;;;;;-144.99;80.41;52476.63;5104119;28;19963;-75
2023/11/04 10:53:41;;;;;;;;;;;;;;;-144.99;81.82;52448.09;5102486;28;19928;-73
2023/11/04 10:56:09;;;;;;;;;;;;;;;-144.99;81.59;52441.97;5096869;28;20058;-73
2023/11/04 10:58:40;;;;;;;;;;;;;;;-144.99;80.37;52419.56;5101881;28;19989;-76
2023/11/04 11:01:07;;;;;;;;;;;;;;;-144.99;76.33;52395.09;5109620;28;19924;-75
2023/11/04 11:03:34;;;;;;;;;;;;;;;-144.99;74.93;52399.19;5092516;28;19954;-74
2023/11/04 11:06:03;;;;;;;;;;;;;;;-144.99;76.91;52452.16;5095055;28;20326;-73
2023/11/04 11:08:31;;;;;;;;;;;;;;;-144.99;78.77;52368.59;5094611;28;20339;-74
2023/11/04 11:11:00;;;;;;;;;;;;;;;-144.99;80.41;52501.09;5094680;28;20022;-73
2023/11/04 11:13:30;;;;;;;;;;;;;;;-144.99;81.32;52480.72;5103871;28;19975;-73
2023/11/04 11:15:58;;;;;;;;;;;;;;;-144.99;82.42;52501.09;5098950;28;20022;-75
2023/11/04 11:18:28;;;;;;;;;;;;;;;-144.99;84.39;52509.25;5105558;28;20015;-74
2023/11/04 11:20:54;;;;;;;;;;;;;;;-144.99;85.28;52486.81;5098480;28;19927;-73
2023/11/04 11:23:28;;;;;;;;;;;;;;;-144.99;86.47;52517.41;5091635;28;20362;-74
2023/11/04 11:26:04;;;;;;;;;;;;;;;-144.99;86.58;52468.47;5090736;28;19924;-73
2023/11/04 11:28:34;;;;;;;;;;;;;;;-144.99;87.14;52513.31;5089185;28;20007;-74
2023/11/04 11:31:01;;;;;;;;;;;;;;;-144.99;87.23;52521.47;5096525;28;19982;-72
2023/11/04 11:33:28;;;;;;;;;;;;;;;-144.99;87.22;52505.16;5089957;28;19928;-75
2023/11/04 11:35:57;;;;;;;;;;;;;;;-144.99;87.69;52513.31;5095121;28;19924;-73
2023/11/04 11:38:24;;;;;;;;;;;;;;;-144.99;87.26;52525.56;5098640;28;19959;-74
2023/11/04 11:40:50;;;;;;;;;;;;;;;-144.99;87.85;52507.19;5101638;28;20037;-73
2023/11/04 11:43:19;;;;;;;;;;;;;;;-144.99;87.62;52501.09;5101591;28;19932;-73
2023/11/04 11:45:47;;;;;;;;;;;;;;;-144.99;87.65;52533.69;5106523;28;19923;-75
2023/11/04 11:48:14;;;;;;;;;;;;;;;-144.99;87.91;52505.16;5096854;28;19975;-73
2023/11/04 11:50:41;;;;;;;;;;;;;;;-144.99;87.60;52505.16;5092320;28;19975;-74
2023/11/04 11:53:08;;;;;;;;;;;;;;;-144.99;87.81;52521.47;5095582;28;20351;-74
2023/11/04 11:55:35;;;;;;;;;;;;;;;-144.99;87.46;52480.72;5097776;28;19971;-74
2023/11/04 11:58:01;;;;;;;;;;;;;;;-144.99;87.69;52507.19;5094318;28;19970;-76
2023/11/04 12:00:29;;;;;;;;;;;;;;;-144.99;88.04;52484.78;5093651;28;19946;-74
2023/11/04 12:02:56;;;;;;;;;;;;;;;-144.99;87.74;52509.25;5095293;28;20406;-77
2023/11/04 12:05:23;;;;;;;;;;;;;;;-144.99;87.11;52480.72;5093003;28;19924;-74
2023/11/04 12:07:50;;;;;;;;;;;;;;;-144.99;85.63;52480.72;5096911;28;19979;-75
2023/11/04 12:10:17;;;;;;;;;;;;;;;-144.99;85.46;52509.25;5090067;28;19924;-74
2023/11/04 12:12:44;;;;;;;;;;;;;;;-144.99;84.50;52492.94;5090006;28;19931;-73
2023/11/04 12:15:11;;;;;;;;;;;;;;;-144.99;84.10;52488.84;5094182;28;20445;-73
2023/11/04 12:17:39;;;;;;;;;;;;;;;-144.99;84.87;52456.25;5098828;28;20015;-74
2023/11/04 12:20:07;;;;;;;;;;;;;;;-144.99;84.66;52486.81;5091609;28;20413;-74
2023/11/04 12:22:34;;;;;;;;;;;;;;;-144.99;84.21;52439.94;5094053;28;19978;-74